Cleveland, Ohio
Traffic Map
Current Weather Conditions
Cleveland, Ohio
Overcast Light Snow
Overcast
24°
Feels Like: 14°
Wind Chill: 14° Ceiling: 1100
Heat Index: 24° Visibility: 0.75mi
Dew Point: 21° Wind: 10mph
Humidity: 88% Direction: 60° (ENE)
Pressure: 29.4in Gusts: 0mph
Raw Report DataKBKL 140453Z 06009KT 3/4SM -SN BR VV011 M04/M06 A2940 RMK AO2 SLP962 P0004 T10441061 410441078
Traffic Incident Summary
Active as of:
Severity:
Category:
InformationThere was an issue retrieving the traffic information for this location. Please try a different location or try again shortly.
Advertisements